sensor_id;sensor_type;location;lat;lon;timestamp;temperature;humidity
7411;DHT22;3747;48.628;9.058;2022-11-20T00:02:09;3.30;99.90
7411;DHT22;3747;48.628;9.058;2022-11-20T00:04:36;3.30;99.90
7411;DHT22;3747;48.628;9.058;2022-11-20T00:07:02;3.20;99.90
7411;DHT22;3747;48.628;9.058;2022-11-20T00:09:30;3.20;99.90
7411;DHT22;3747;48.628;9.058;2022-11-20T00:11:57;3.20;99.90
7411;DHT22;3747;48.628;9.058;2022-11-20T00:14:24;3.20;99.90
7411;DHT22;3747;48.628;9.058;2022-11-20T00:16:50;3.20;99.90
7411;DHT22;3747;48.628;9.058;2022-11-20T00:19:17;3.20;99.90
7411;DHT22;3747;48.628;9.058;2022-11-20T00:21:44;3.30;99.90
7411;DHT22;3747;48.628;9.058;2022-11-20T00:24:11;3.20;99.90
7411;DHT22;3747;48.628;9.058;2022-11-20T00:26:39;3.30;99.90
7411;DHT22;3747;48.628;9.058;2022-11-20T00:29:08;3.40;99.90
7411;DHT22;3747;48.628;9.058;2022-11-20T00:31:35;3.40;99.90
7411;DHT22;3747;48.628;9.058;2022-11-20T00:34:02;3.40;99.90
7411;DHT22;3747;48.628;9.058;2022-11-20T00:36:32;3.30;99.90
7411;DHT22;3747;48.628;9.058;2022-11-20T00:38:59;3.30;99.90
7411;DHT22;3747;48.628;9.058;2022-11-20T00:41:28;3.30;99.90
7411;DHT22;3747;48.628;9.058;2022-11-20T00:43:56;3.30;99.90
7411;DHT22;3747;48.628;9.058;2022-11-20T00:46:25;3.30;99.90
7411;DHT22;3747;48.628;9.058;2022-11-20T00:48:52;3.30;99.90
7411;DHT22;3747;48.628;9.058;2022-11-20T00:51:20;3.20;99.90
7411;DHT22;3747;48.628;9.058;2022-11-20T00:53:47;3.20;99.90
7411;DHT22;3747;48.628;9.058;2022-11-20T00:56:15;3.20;99.90
7411;DHT22;3747;48.628;9.058;2022-11-20T00:58:44;3.20;99.90
7411;DHT22;3747;48.628;9.058;2022-11-20T01:01:14;3.10;99.90
7411;DHT22;3747;48.628;9.058;2022-11-20T01:03:42;3.10;99.90
7411;DHT22;3747;48.628;9.058;2022-11-20T01:06:11;3.10;99.90
7411;DHT22;3747;48.628;9.058;2022-11-20T01:08:38;3.10;99.90
7411;DHT22;3747;48.628;9.058;2022-11-20T01:11:06;3.10;99.90
7411;DHT22;3747;48.628;9.058;2022-11-20T01:13:34;3.00;99.90
7411;DHT22;3747;48.628;9.058;2022-11-20T01:16:05;3.00;99.90
7411;DHT22;3747;48.628;9.058;2022-11-20T01:18:33;3.00;99.90
7411;DHT22;3747;48.628;9.058;2022-11-20T01:21:02;3.00;99.90
7411;DHT22;3747;48.628;9.058;2022-11-20T01:23:33;3.00;99.90
7411;DHT22;3747;48.628;9.058;2022-11-20T01:26:01;2.90;99.90
7411;DHT22;3747;48.628;9.058;2022-11-20T01:28:29;2.90;99.90
7411;DHT22;3747;48.628;9.058;2022-11-20T01:30:56;2.80;99.90
7411;DHT22;3747;48.628;9.058;2022-11-20T01:33:23;2.80;99.90
7411;DHT22;3747;48.628;9.058;2022-11-20T01:35:52;2.80;99.90
7411;DHT22;3747;48.628;9.058;2022-11-20T01:38:19;2.80;99.90
7411;DHT22;3747;48.628;9.058;2022-11-20T01:40:53;2.70;99.90
7411;DHT22;3747;48.628;9.058;2022-11-20T01:43:20;2.70;99.90
7411;DHT22;3747;48.628;9.058;2022-11-20T01:46:06;2.60;99.90
7411;DHT22;3747;48.628;9.058;2022-11-20T01:48:42;2.60;99.90
7411;DHT22;3747;48.628;9.058;2022-11-20T01:51:18;2.50;99.90
7411;DHT22;3747;48.628;9.058;2022-11-20T01:53:47;2.40;99.90
7411;DHT22;3747;48.628;9.058;2022-11-20T01:56:15;2.40;99.90
7411;DHT22;3747;48.628;9.058;2022-11-20T01:58:44;2.30;99.90
7411;DHT22;3747;48.628;9.058;2022-11-20T02:01:13;2.40;99.90
7411;DHT22;3747;48.628;9.058;2022-11-20T02:03:41;2.40;99.90
7411;DHT22;3747;48.628;9.058;2022-11-20T02:06:14;2.40;99.90
7411;DHT22;3747;48.628;9.058;2022-11-20T02:08:43;2.40;99.90
7411;DHT22;3747;48.628;9.058;2022-11-20T02:11:10;2.40;99.90
7411;DHT22;3747;48.628;9.058;2022-11-20T02:13:38;2.50;99.90
7411;DHT22;3747;48.628;9.058;2022-11-20T02:16:13;2.50;99.90
7411;DHT22;3747;48.628;9.058;2022-11-20T02:18:40;2.60;99.90
7411;DHT22;3747;48.628;9.058;2022-11-20T02:21:12;2.60;99.90
7411;DHT22;3747;48.628;9.058;2022-11-20T02:23:52;2.60;99.90
7411;DHT22;3747;48.628;9.058;2022-11-20T02:26:20;2.70;99.90
7411;DHT22;3747;48.628;9.058;2022-11-20T02:28:48;2.60;99.90
7411;DHT22;3747;48.628;9.058;2022-11-20T02:31:15;2.60;99.90
7411;DHT22;3747;48.628;9.058;2022-11-20T02:33:42;2.70;99.90
7411;DHT22;3747;48.628;9.058;2022-11-20T02:36:12;2.70;99.90
7411;DHT22;3747;48.628;9.058;2022-11-20T02:38:41;2.70;99.90
7411;DHT22;3747;48.628;9.058;2022-11-20T02:41:09;2.70;99.90
7411;DHT22;3747;48.628;9.058;2022-11-20T02:43:36;2.70;99.90
7411;DHT22;3747;48.628;9.058;2022-11-20T02:46:03;2.80;99.90
7411;DHT22;3747;48.628;9.058;2022-11-20T02:48:29;2.80;99.90
7411;DHT22;3747;48.628;9.058;2022-11-20T02:50:56;2.90;99.90
7411;DHT22;3747;48.628;9.058;2022-11-20T02:53:23;2.90;99.90
7411;DHT22;3747;48.628;9.058;2022-11-20T02:55:49;2.90;99.90
7411;DHT22;3747;48.628;9.058;2022-11-20T02:58:18;2.90;99.90
7411;DHT22;3747;48.628;9.058;2022-11-20T03:00:44;2.90;99.90
7411;DHT22;3747;48.628;9.058;2022-11-20T03:03:11;2.90;99.90
7411;DHT22;3747;48.628;9.058;2022-11-20T03:05:38;2.90;99.90
7411;DHT22;3747;48.628;9.058;2022-11-20T03:08:04;2.90;99.90
7411;DHT22;3747;48.628;9.058;2022-11-20T03:10:31;2.80;99.90
7411;DHT22;3747;48.628;9.058;2022-11-20T03:12:58;2.90;99.90
7411;DHT22;3747;48.628;9.058;2022-11-20T03:15:26;2.80;99.90
7411;DHT22;3747;48.628;9.058;2022-11-20T03:17:53;2.80;99.90
7411;DHT22;3747;48.628;9.058;2022-11-20T03:20:21;2.80;99.90
7411;DHT22;3747;48.628;9.058;2022-11-20T03:22:48;2.80;99.90
7411;DHT22;3747;48.628;9.058;2022-11-20T03:25:15;2.80;99.90
7411;DHT22;3747;48.628;9.058;2022-11-20T03:27:41;2.80;99.90
7411;DHT22;3747;48.628;9.058;2022-11-20T03:30:09;2.80;99.90
7411;DHT22;3747;48.628;9.058;2022-11-20T03:32:37;2.70;99.90
7411;DHT22;3747;48.628;9.058;2022-11-20T03:35:05;2.70;99.90
7411;DHT22;3747;48.628;9.058;2022-11-20T03:37:32;2.70;99.90
7411;DHT22;3747;48.628;9.058;2022-11-20T03:39:58;2.80;99.90
7411;DHT22;3747;48.628;9.058;2022-11-20T03:42:25;2.90;99.90
7411;DHT22;3747;48.628;9.058;2022-11-20T03:45:21;3.00;99.90
7411;DHT22;3747;48.628;9.058;2022-11-20T03:47:49;2.90;99.90
7411;DHT22;3747;48.628;9.058;2022-11-20T03:50:16;2.90;99.90
7411;DHT22;3747;48.628;9.058;2022-11-20T03:52:42;2.80;99.90
7411;DHT22;3747;48.628;9.058;2022-11-20T03:55:09;2.70;99.90
7411;DHT22;3747;48.628;9.058;2022-11-20T03:57:36;2.60;99.90
7411;DHT22;3747;48.628;9.058;2022-11-20T04:00:04;2.60;99.90
7411;DHT22;3747;48.628;9.058;2022-11-20T04:02:30;2.60;99.90
7411;DHT22;3747;48.628;9.058;2022-11-20T04:04:59;2.60;99.90
7411;DHT22;3747;48.628;9.058;2022-11-20T04:07:25;2.60;99.90
7411;DHT22;3747;48.628;9.058;2022-11-20T04:09:52;2.80;99.90
7411;DHT22;3747;48.628;9.058;2022-11-20T04:12:19;2.90;99.90
7411;DHT22;3747;48.628;9.058;2022-11-20T04:14:45;2.90;99.90
7411;DHT22;3747;48.628;9.058;2022-11-20T04:17:12;3.00;99.90
7411;DHT22;3747;48.628;9.058;2022-11-20T04:19:39;3.20;99.90
7411;DHT22;3747;48.628;9.058;2022-11-20T04:22:07;3.20;99.90
7411;DHT22;3747;48.628;9.058;2022-11-20T04:24:34;3.30;99.90
7411;DHT22;3747;48.628;9.058;2022-11-20T04:27:00;3.30;99.90
7411;DHT22;3747;48.628;9.058;2022-11-20T04:29:27;3.40;99.90
7411;DHT22;3747;48.628;9.058;2022-11-20T04:31:54;3.40;99.90
7411;DHT22;3747;48.628;9.058;2022-11-20T04:34:20;3.50;99.90
7411;DHT22;3747;48.628;9.058;2022-11-20T04:36:47;3.40;99.90
7411;DHT22;3747;48.628;9.058;2022-11-20T04:39:15;3.40;99.90
7411;DHT22;3747;48.628;9.058;2022-11-20T04:41:42;3.50;99.90
7411;DHT22;3747;48.628;9.058;2022-11-20T04:44:09;3.50;99.90
7411;DHT22;3747;48.628;9.058;2022-11-20T04:46:37;3.40;99.90
7411;DHT22;3747;48.628;9.058;2022-11-20T04:49:05;3.40;99.90
7411;DHT22;3747;48.628;9.058;2022-11-20T04:51:32;3.40;99.90
7411;DHT22;3747;48.628;9.058;2022-11-20T04:53:59;3.40;99.90
7411;DHT22;3747;48.628;9.058;2022-11-20T04:56:28;3.40;99.90
7411;DHT22;3747;48.628;9.058;2022-11-20T04:58:54;3.40;99.90
7411;DHT22;3747;48.628;9.058;2022-11-20T05:01:23;3.50;99.90
7411;DHT22;3747;48.628;9.058;2022-11-20T05:03:50;3.50;99.90
7411;DHT22;3747;48.628;9.058;2022-11-20T05:06:19;3.50;99.90
7411;DHT22;3747;48.628;9.058;2022-11-20T05:08:46;3.50;99.90
7411;DHT22;3747;48.628;9.058;2022-11-20T05:11:15;3.50;99.90
7411;DHT22;3747;48.628;9.058;2022-11-20T05:13:43;3.60;99.90
7411;DHT22;3747;48.628;9.058;2022-11-20T05:16:11;3.60;99.90
7411;DHT22;3747;48.628;9.058;2022-11-20T05:18:39;3.60;99.90
7411;DHT22;3747;48.628;9.058;2022-11-20T05:21:07;3.70;99.90
7411;DHT22;3747;48.628;9.058;2022-11-20T05:23:34;3.60;99.90
7411;DHT22;3747;48.628;9.058;2022-11-20T05:26:02;3.60;99.90
7411;DHT22;3747;48.628;9.058;2022-11-20T05:28:30;3.60;99.90
7411;DHT22;3747;48.628;9.058;2022-11-20T05:31:04;3.60;99.90
7411;DHT22;3747;48.628;9.058;2022-11-20T05:33:31;3.60;99.90
7411;DHT22;3747;48.628;9.058;2022-11-20T05:35:58;3.50;99.90
7411;DHT22;3747;48.628;9.058;2022-11-20T05:38:25;3.50;99.90
7411;DHT22;3747;48.628;9.058;2022-11-20T05:40:52;3.40;99.90
7411;DHT22;3747;48.628;9.058;2022-11-20T05:43:18;3.40;99.90
7411;DHT22;3747;48.628;9.058;2022-11-20T05:45:52;3.40;99.90
7411;DHT22;3747;48.628;9.058;2022-11-20T05:48:20;3.40;99.90
7411;DHT22;3747;48.628;9.058;2022-11-20T05:50:47;3.30;99.90
7411;DHT22;3747;48.628;9.058;2022-11-20T05:53:14;3.40;99.90
7411;DHT22;3747;48.628;9.058;2022-11-20T05:55:40;3.40;99.90
7411;DHT22;3747;48.628;9.058;2022-11-20T05:58:07;3.40;99.90
7411;DHT22;3747;48.628;9.058;2022-11-20T06:00:34;3.40;99.90
7411;DHT22;3747;48.628;9.058;2022-11-20T06:03:01;3.40;99.90
7411;DHT22;3747;48.628;9.058;2022-11-20T06:05:29;3.40;99.90
7411;DHT22;3747;48.628;9.058;2022-11-20T06:07:55;3.40;99.90
7411;DHT22;3747;48.628;9.058;2022-11-20T06:10:22;3.40;99.90
7411;DHT22;3747;48.628;9.058;2022-11-20T06:12:49;3.40;99.90
7411;DHT22;3747;48.628;9.058;2022-11-20T06:15:16;3.40;99.90
7411;DHT22;3747;48.628;9.058;2022-11-20T06:17:42;3.50;99.90
7411;DHT22;3747;48.628;9.058;2022-11-20T06:20:10;3.40;99.90
7411;DHT22;3747;48.628;9.058;2022-11-20T06:22:38;3.50;99.90
7411;DHT22;3747;48.628;9.058;2022-11-20T06:25:05;3.40;99.90
7411;DHT22;3747;48.628;9.058;2022-11-20T06:27:32;3.40;99.90
7411;DHT22;3747;48.628;9.058;2022-11-20T06:29:59;3.50;99.90
7411;DHT22;3747;48.628;9.058;2022-11-20T06:32:25;3.50;99.90
7411;DHT22;3747;48.628;9.058;2022-11-20T06:34:52;3.50;99.90
7411;DHT22;3747;48.628;9.058;2022-11-20T06:37:19;3.50;99.90
7411;DHT22;3747;48.628;9.058;2022-11-20T06:39:47;3.60;99.90
7411;DHT22;3747;48.628;9.058;2022-11-20T06:42:13;3.60;99.90
7411;DHT22;3747;48.628;9.058;2022-11-20T06:44:40;3.60;99.90
7411;DHT22;3747;48.628;9.058;2022-11-20T06:47:07;3.60;99.90
7411;DHT22;3747;48.628;9.058;2022-11-20T06:49:34;3.60;99.90
7411;DHT22;3747;48.628;9.058;2022-11-20T06:52:02;3.60;99.90
7411;DHT22;3747;48.628;9.058;2022-11-20T06:54:29;3.60;99.90
7411;DHT22;3747;48.628;9.058;2022-11-20T06:56:57;3.60;99.90
7411;DHT22;3747;48.628;9.058;2022-11-20T06:59:24;3.70;99.90
7411;DHT22;3747;48.628;9.058;2022-11-20T07:01:50;3.60;99.90
7411;DHT22;3747;48.628;9.058;2022-11-20T07:04:17;3.60;99.90
7411;DHT22;3747;48.628;9.058;2022-11-20T07:06:44;3.70;99.90
7411;DHT22;3747;48.628;9.058;2022-11-20T07:09:10;3.70;99.90
7411;DHT22;3747;48.628;9.058;2022-11-20T07:11:37;3.70;99.90
7411;DHT22;3747;48.628;9.058;2022-11-20T07:14:05;3.70;99.90
7411;DHT22;3747;48.628;9.058;2022-11-20T07:16:32;3.80;99.90
7411;DHT22;3747;48.628;9.058;2022-11-20T07:18:59;3.80;99.90
7411;DHT22;3747;48.628;9.058;2022-11-20T07:21:26;3.80;99.90
7411;DHT22;3747;48.628;9.058;2022-11-20T07:23:52;3.80;99.90
7411;DHT22;3747;48.628;9.058;2022-11-20T07:26:19;3.80;99.90
7411;DHT22;3747;48.628;9.058;2022-11-20T07:28:46;3.80;99.90
7411;DHT22;3747;48.628;9.058;2022-11-20T07:31:14;3.80;99.90
7411;DHT22;3747;48.628;9.058;2022-11-20T07:33:40;3.90;99.90
7411;DHT22;3747;48.628;9.058;2022-11-20T07:36:07;3.90;99.90
7411;DHT22;3747;48.628;9.058;2022-11-20T07:38:34;4.00;99.90
7411;DHT22;3747;48.628;9.058;2022-11-20T07:41:01;4.10;99.90
7411;DHT22;3747;48.628;9.058;2022-11-20T07:43:28;4.10;99.90
7411;DHT22;3747;48.628;9.058;2022-11-20T07:45:55;4.20;99.90
7411;DHT22;3747;48.628;9.058;2022-11-20T07:48:23;4.30;99.90
7411;DHT22;3747;48.628;9.058;2022-11-20T07:50:53;4.30;99.90
7411;DHT22;3747;48.628;9.058;2022-11-20T07:53:20;4.40;99.90
7411;DHT22;3747;48.628;9.058;2022-11-20T07:55:47;4.70;99.90
7411;DHT22;3747;48.628;9.058;2022-11-20T07:58:13;4.80;99.90
7411;DHT22;3747;48.628;9.058;2022-11-20T08:00:40;4.80;99.90
7411;DHT22;3747;48.628;9.058;2022-11-20T08:03:07;4.70;99.90
7411;DHT22;3747;48.628;9.058;2022-11-20T08:05:35;4.60;99.90
7411;DHT22;3747;48.628;9.058;2022-11-20T08:08:03;4.60;99.90
7411;DHT22;3747;48.628;9.058;2022-11-20T08:10:29;4.60;99.90
7411;DHT22;3747;48.628;9.058;2022-11-20T08:12:56;4.60;99.90
7411;DHT22;3747;48.628;9.058;2022-11-20T08:15:40;4.60;99.90
7411;DHT22;3747;48.628;9.058;2022-11-20T08:18:09;4.70;99.90
7411;DHT22;3747;48.628;9.058;2022-11-20T08:20:37;4.70;99.90
7411;DHT22;3747;48.628;9.058;2022-11-20T08:23:06;4.70;99.90
7411;DHT22;3747;48.628;9.058;2022-11-20T08:25:34;4.60;99.90
7411;DHT22;3747;48.628;9.058;2022-11-20T08:28:03;4.60;99.90
7411;DHT22;3747;48.628;9.058;2022-11-20T08:30:30;4.60;99.90
7411;DHT22;3747;48.628;9.058;2022-11-20T08:33:01;4.60;99.90
7411;DHT22;3747;48.628;9.058;2022-11-20T08:35:28;4.60;99.90
7411;DHT22;3747;48.628;9.058;2022-11-20T08:37:56;4.70;99.90
7411;DHT22;3747;48.628;9.058;2022-11-20T08:40:23;4.70;99.90
7411;DHT22;3747;48.628;9.058;2022-11-20T08:42:50;4.80;99.90
7411;DHT22;3747;48.628;9.058;2022-11-20T08:45:18;4.80;99.90
7411;DHT22;3747;48.628;9.058;2022-11-20T08:47:45;4.90;99.90
7411;DHT22;3747;48.628;9.058;2022-11-20T08:50:13;4.90;99.90
7411;DHT22;3747;48.628;9.058;2022-11-20T08:52:41;5.00;99.90
7411;DHT22;3747;48.628;9.058;2022-11-20T08:55:10;5.10;99.90
7411;DHT22;3747;48.628;9.058;2022-11-20T08:57:37;5.10;99.90
7411;DHT22;3747;48.628;9.058;2022-11-20T09:00:05;5.20;99.90
7411;DHT22;3747;48.628;9.058;2022-11-20T09:02:33;5.20;99.90
7411;DHT22;3747;48.628;9.058;2022-11-20T09:05:00;5.30;99.90
7411;DHT22;3747;48.628;9.058;2022-11-20T09:07:28;5.30;99.90
7411;DHT22;3747;48.628;9.058;2022-11-20T09:09:55;5.30;99.90
7411;DHT22;3747;48.628;9.058;2022-11-20T09:12:23;5.40;99.90
7411;DHT22;3747;48.628;9.058;2022-11-20T09:14:50;5.50;99.90
7411;DHT22;3747;48.628;9.058;2022-11-20T09:17:17;5.60;99.90
7411;DHT22;3747;48.628;9.058;2022-11-20T09:19:44;5.60;99.90
7411;DHT22;3747;48.628;9.058;2022-11-20T09:22:11;5.60;99.90
7411;DHT22;3747;48.628;9.058;2022-11-20T09:24:38;5.60;99.90
7411;DHT22;3747;48.628;9.058;2022-11-20T09:27:16;5.50;99.90
7411;DHT22;3747;48.628;9.058;2022-11-20T09:29:59;5.50;99.90
7411;DHT22;3747;48.628;9.058;2022-11-20T09:32:26;5.60;99.90
7411;DHT22;3747;48.628;9.058;2022-11-20T09:35:10;5.50;99.90
7411;DHT22;3747;48.628;9.058;2022-11-20T09:37:37;5.40;99.90
7411;DHT22;3747;48.628;9.058;2022-11-20T09:40:04;5.40;99.90
7411;DHT22;3747;48.628;9.058;2022-11-20T09:42:37;5.30;99.90
7411;DHT22;3747;48.628;9.058;2022-11-20T09:45:17;5.30;99.90
7411;DHT22;3747;48.628;9.058;2022-11-20T09:50:45;5.40;99.90
7411;DHT22;3747;48.628;9.058;2022-11-20T09:53:23;5.50;99.90
7411;DHT22;3747;48.628;9.058;2022-11-20T09:55:52;5.50;99.90
7411;DHT22;3747;48.628;9.058;2022-11-20T09:58:25;5.50;99.90
7411;DHT22;3747;48.628;9.058;2022-11-20T10:00:57;5.40;99.90
7411;DHT22;3747;48.628;9.058;2022-11-20T10:03:35;5.50;99.90
7411;DHT22;3747;48.628;9.058;2022-11-20T10:06:05;5.60;99.90
7411;DHT22;3747;48.628;9.058;2022-11-20T10:08:40;5.50;99.90
7411;DHT22;3747;48.628;9.058;2022-11-20T10:11:14;5.60;99.90
7411;DHT22;3747;48.628;9.058;2022-11-20T10:13:51;5.60;99.90
7411;DHT22;3747;48.628;9.058;2022-11-20T10:16:33;5.60;99.90
7411;DHT22;3747;48.628;9.058;2022-11-20T10:19:13;5.60;99.90
7411;DHT22;3747;48.628;9.058;2022-11-20T10:21:56;5.50;99.90
7411;DHT22;3747;48.628;9.058;2022-11-20T10:24:34;5.50;99.90
7411;DHT22;3747;48.628;9.058;2022-11-20T10:27:16;5.50;99.90
7411;DHT22;3747;48.628;9.058;2022-11-20T10:29:54;5.50;99.90
7411;DHT22;3747;48.628;9.058;2022-11-20T10:32:30;5.60;99.90
7411;DHT22;3747;48.628;9.058;2022-11-20T10:35:03;5.70;99.90
7411;DHT22;3747;48.628;9.058;2022-11-20T10:37:32;5.70;99.90
7411;DHT22;3747;48.628;9.058;2022-11-20T10:40:14;5.80;99.90
7411;DHT22;3747;48.628;9.058;2022-11-20T10:42:48;5.80;99.90
7411;DHT22;3747;48.628;9.058;2022-11-20T10:45:43;5.90;99.90
7411;DHT22;3747;48.628;9.058;2022-11-20T10:48:16;5.90;99.90
7411;DHT22;3747;48.628;9.058;2022-11-20T10:51:10;5.80;99.90
7411;DHT22;3747;48.628;9.058;2022-11-20T10:53:46;5.90;99.90
7411;DHT22;3747;48.628;9.058;2022-11-20T10:56:19;6.00;99.90
7411;DHT22;3747;48.628;9.058;2022-11-20T10:58:59;6.20;99.90
7411;DHT22;3747;48.628;9.058;2022-11-20T11:01:27;6.40;99.90
7411;DHT22;3747;48.628;9.058;2022-11-20T11:04:01;6.60;99.90
7411;DHT22;3747;48.628;9.058;2022-11-20T11:06:32;6.80;99.90
7411;DHT22;3747;48.628;9.058;2022-11-20T11:09:04;7.00;99.90
7411;DHT22;3747;48.628;9.058;2022-11-20T11:11:33;6.90;99.90
7411;DHT22;3747;48.628;9.058;2022-11-20T11:14:06;7.10;99.90
7411;DHT22;3747;48.628;9.058;2022-11-20T11:16:33;7.30;99.90
7411;DHT22;3747;48.628;9.058;2022-11-20T11:19:07;7.30;99.90
7411;DHT22;3747;48.628;9.058;2022-11-20T11:21:38;7.40;99.90
7411;DHT22;3747;48.628;9.058;2022-11-20T11:24:19;7.20;99.90
7411;DHT22;3747;48.628;9.058;2022-11-20T11:26:52;7.00;99.90
7411;DHT22;3747;48.628;9.058;2022-11-20T11:29:19;6.90;99.90
7411;DHT22;3747;48.628;9.058;2022-11-20T11:31:46;6.90;99.90
7411;DHT22;3747;48.628;9.058;2022-11-20T11:34:15;6.90;99.90
7411;DHT22;3747;48.628;9.058;2022-11-20T11:36:47;7.00;99.90
7411;DHT22;3747;48.628;9.058;2022-11-20T11:39:18;7.10;99.90
7411;DHT22;3747;48.628;9.058;2022-11-20T11:41:46;7.30;99.90
7411;DHT22;3747;48.628;9.058;2022-11-20T11:44:17;7.40;99.90
7411;DHT22;3747;48.628;9.058;2022-11-20T11:47:04;7.50;99.90
7411;DHT22;3747;48.628;9.058;2022-11-20T11:49:33;7.40;99.90
7411;DHT22;3747;48.628;9.058;2022-11-20T11:52:04;7.30;99.90
7411;DHT22;3747;48.628;9.058;2022-11-20T11:54:36;7.30;99.90
7411;DHT22;3747;48.628;9.058;2022-11-20T11:57:10;7.10;99.90
7411;DHT22;3747;48.628;9.058;2022-11-20T11:59:47;7.10;99.90
7411;DHT22;3747;48.628;9.058;2022-11-20T12:02:27;7.00;99.90
7411;DHT22;3747;48.628;9.058;2022-11-20T12:05:02;6.60;99.90
7411;DHT22;3747;48.628;9.058;2022-11-20T12:07:43;6.50;99.90
7411;DHT22;3747;48.628;9.058;2022-11-20T12:10:17;6.50;99.90
7411;DHT22;3747;48.628;9.058;2022-11-20T12:12:48;6.30;99.90
7411;DHT22;3747;48.628;9.058;2022-11-20T12:15:25;6.20;99.90
7411;DHT22;3747;48.628;9.058;2022-11-20T12:17:52;6.20;99.90
7411;DHT22;3747;48.628;9.058;2022-11-20T12:20:23;6.30;99.90
7411;DHT22;3747;48.628;9.058;2022-11-20T12:22:55;6.50;99.90
7411;DHT22;3747;48.628;9.058;2022-11-20T12:25:28;6.90;99.90
7411;DHT22;3747;48.628;9.058;2022-11-20T12:31:02;7.50;99.90
7411;DHT22;3747;48.628;9.058;2022-11-20T12:33:57;7.80;99.90
7411;DHT22;3747;48.628;9.058;2022-11-20T12:36:35;8.20;99.90
7411;DHT22;3747;48.628;9.058;2022-11-20T12:39:17;8.20;99.90
7411;DHT22;3747;48.628;9.058;2022-11-20T12:45:45;7.40;99.90
7411;DHT22;3747;48.628;9.058;2022-11-20T12:48:41;7.10;99.90
7411;DHT22;3747;48.628;9.058;2022-11-20T12:57:09;6.30;99.90
7411;DHT22;3747;48.628;9.058;2022-11-20T12:59:59;6.20;99.90
7411;DHT22;3747;48.628;9.058;2022-11-20T13:02:33;6.20;99.90
7411;DHT22;3747;48.628;9.058;2022-11-20T13:05:20;6.20;99.90
7411;DHT22;3747;48.628;9.058;2022-11-20T13:07:49;6.30;99.90
7411;DHT22;3747;48.628;9.058;2022-11-20T13:10:23;6.40;99.90
7411;DHT22;3747;48.628;9.058;2022-11-20T13:12:58;6.40;99.90
7411;DHT22;3747;48.628;9.058;2022-11-20T13:15:36;6.40;99.90
7411;DHT22;3747;48.628;9.058;2022-11-20T13:18:09;6.60;99.90
7411;DHT22;3747;48.628;9.058;2022-11-20T13:20:41;6.70;99.90
7411;DHT22;3747;48.628;9.058;2022-11-20T13:23:08;6.80;99.90
7411;DHT22;3747;48.628;9.058;2022-11-20T13:25:38;6.90;99.90
7411;DHT22;3747;48.628;9.058;2022-11-20T13:28:26;6.90;99.90
7411;DHT22;3747;48.628;9.058;2022-11-20T13:30:55;6.80;99.90
7411;DHT22;3747;48.628;9.058;2022-11-20T13:33:25;6.70;99.90
7411;DHT22;3747;48.628;9.058;2022-11-20T13:35:56;6.60;99.90
7411;DHT22;3747;48.628;9.058;2022-11-20T13:38:23;6.50;99.90
7411;DHT22;3747;48.628;9.058;2022-11-20T13:40:53;6.50;99.90
7411;DHT22;3747;48.628;9.058;2022-11-20T13:43:32;6.60;99.90
7411;DHT22;3747;48.628;9.058;2022-11-20T13:46:02;6.70;99.90
7411;DHT22;3747;48.628;9.058;2022-11-20T13:48:31;6.50;99.90
7411;DHT22;3747;48.628;9.058;2022-11-20T13:51:12;6.50;99.90
7411;DHT22;3747;48.628;9.058;2022-11-20T13:53:53;6.50;99.90
7411;DHT22;3747;48.628;9.058;2022-11-20T13:56:32;6.50;99.90
7411;DHT22;3747;48.628;9.058;2022-11-20T13:59:05;6.50;99.90
7411;DHT22;3747;48.628;9.058;2022-11-20T14:01:34;6.40;99.90
7411;DHT22;3747;48.628;9.058;2022-11-20T14:04:06;6.20;99.90
7411;DHT22;3747;48.628;9.058;2022-11-20T14:06:40;6.10;99.90
7411;DHT22;3747;48.628;9.058;2022-11-20T14:09:11;6.00;99.90
7411;DHT22;3747;48.628;9.058;2022-11-20T14:11:45;6.00;99.90
7411;DHT22;3747;48.628;9.058;2022-11-20T14:14:15;6.00;99.90
7411;DHT22;3747;48.628;9.058;2022-11-20T14:16:43;6.00;99.90
7411;DHT22;3747;48.628;9.058;2022-11-20T14:19:26;6.00;99.90
7411;DHT22;3747;48.628;9.058;2022-11-20T14:22:06;6.10;99.90
7411;DHT22;3747;48.628;9.058;2022-11-20T14:24:33;6.10;99.90
7411;DHT22;3747;48.628;9.058;2022-11-20T14:27:01;6.00;99.90
7411;DHT22;3747;48.628;9.058;2022-11-20T14:29:33;5.90;99.90
7411;DHT22;3747;48.628;9.058;2022-11-20T14:32:01;5.90;99.90
7411;DHT22;3747;48.628;9.058;2022-11-20T14:34:30;5.70;99.90
7411;DHT22;3747;48.628;9.058;2022-11-20T14:36:59;5.70;99.90
7411;DHT22;3747;48.628;9.058;2022-11-20T14:39:30;5.60;99.90
7411;DHT22;3747;48.628;9.058;2022-11-20T14:41:57;5.50;99.90
7411;DHT22;3747;48.628;9.058;2022-11-20T14:44:28;5.50;99.90
7411;DHT22;3747;48.628;9.058;2022-11-20T14:46:56;5.50;99.90
7411;DHT22;3747;48.628;9.058;2022-11-20T14:49:23;5.50;99.90
7411;DHT22;3747;48.628;9.058;2022-11-20T14:51:59;5.50;99.90
7411;DHT22;3747;48.628;9.058;2022-11-20T14:57:33;5.10;99.90
7411;DHT22;3747;48.628;9.058;2022-11-20T15:00:19;4.90;99.90
7411;DHT22;3747;48.628;9.058;2022-11-20T15:02:48;4.80;99.90
7411;DHT22;3747;48.628;9.058;2022-11-20T15:05:16;4.70;99.90
7411;DHT22;3747;48.628;9.058;2022-11-20T15:07:44;4.60;99.90
7411;DHT22;3747;48.628;9.058;2022-11-20T15:10:22;4.70;99.90
7411;DHT22;3747;48.628;9.058;2022-11-20T15:12:50;4.60;99.90
7411;DHT22;3747;48.628;9.058;2022-11-20T15:15:21;4.50;99.90
7411;DHT22;3747;48.628;9.058;2022-11-20T15:17:49;4.50;99.90
7411;DHT22;3747;48.628;9.058;2022-11-20T15:20:17;4.40;99.90
7411;DHT22;3747;48.628;9.058;2022-11-20T15:22:44;4.30;99.90
7411;DHT22;3747;48.628;9.058;2022-11-20T15:25:15;4.20;99.90
7411;DHT22;3747;48.628;9.058;2022-11-20T15:27:42;4.20;99.90
7411;DHT22;3747;48.628;9.058;2022-11-20T15:30:14;4.00;99.90
7411;DHT22;3747;48.628;9.058;2022-11-20T15:32:44;4.00;99.90
7411;DHT22;3747;48.628;9.058;2022-11-20T15:35:11;3.80;99.90
7411;DHT22;3747;48.628;9.058;2022-11-20T15:37:39;3.80;99.90
7411;DHT22;3747;48.628;9.058;2022-11-20T15:40:07;3.80;99.90
7411;DHT22;3747;48.628;9.058;2022-11-20T15:42:34;3.80;99.90
7411;DHT22;3747;48.628;9.058;2022-11-20T15:45:01;3.80;99.90
7411;DHT22;3747;48.628;9.058;2022-11-20T15:47:31;3.80;99.90
7411;DHT22;3747;48.628;9.058;2022-11-20T15:50:00;3.80;99.90
7411;DHT22;3747;48.628;9.058;2022-11-20T15:52:27;3.80;99.90
7411;DHT22;3747;48.628;9.058;2022-11-20T15:54:53;3.70;99.90
7411;DHT22;3747;48.628;9.058;2022-11-20T15:57:20;3.80;99.90
7411;DHT22;3747;48.628;9.058;2022-11-20T15:59:47;3.70;99.90
7411;DHT22;3747;48.628;9.058;2022-11-20T16:02:15;3.80;99.90
7411;DHT22;3747;48.628;9.058;2022-11-20T16:04:42;3.90;99.90
7411;DHT22;3747;48.628;9.058;2022-11-20T16:07:16;3.90;99.90
7411;DHT22;3747;48.628;9.058;2022-11-20T16:09:42;4.00;99.90
7411;DHT22;3747;48.628;9.058;2022-11-20T16:12:09;4.10;99.90
7411;DHT22;3747;48.628;9.058;2022-11-20T16:14:58;4.10;99.90
7411;DHT22;3747;48.628;9.058;2022-11-20T16:17:42;4.10;99.90
7411;DHT22;3747;48.628;9.058;2022-11-20T16:20:11;4.20;99.90
7411;DHT22;3747;48.628;9.058;2022-11-20T16:22:39;4.10;99.90
7411;DHT22;3747;48.628;9.058;2022-11-20T16:25:06;4.20;99.90
7411;DHT22;3747;48.628;9.058;2022-11-20T16:27:33;4.20;99.90
7411;DHT22;3747;48.628;9.058;2022-11-20T16:29:59;4.20;99.90
7411;DHT22;3747;48.628;9.058;2022-11-20T16:32:26;4.30;99.90
7411;DHT22;3747;48.628;9.058;2022-11-20T16:34:53;4.30;99.90
7411;DHT22;3747;48.628;9.058;2022-11-20T16:37:20;4.30;99.90
7411;DHT22;3747;48.628;9.058;2022-11-20T16:39:48;4.30;99.90
7411;DHT22;3747;48.628;9.058;2022-11-20T16:42:15;4.40;99.90
7411;DHT22;3747;48.628;9.058;2022-11-20T16:44:45;4.40;99.90
7411;DHT22;3747;48.628;9.058;2022-11-20T16:47:12;4.30;99.90
7411;DHT22;3747;48.628;9.058;2022-11-20T16:49:38;4.40;99.90
7411;DHT22;3747;48.628;9.058;2022-11-20T16:52:05;4.40;99.90
7411;DHT22;3747;48.628;9.058;2022-11-20T16:54:32;4.40;99.90